createdAt,value
2017-11-15T00:00:11.728Z,314.52
2017-11-15T00:02:39.583Z,187.93
2017-11-15T00:05:07.103Z,210.07
2017-11-15T00:07:34.707Z,150.10
2017-11-15T00:10:02.238Z,153.85
2017-11-15T00:12:30.156Z,242.10
2017-11-15T00:14:57.752Z,224.57
2017-11-15T00:17:25.273Z,272.80
2017-11-15T00:19:52.787Z,188.45
2017-11-15T00:22:32.039Z,144.80
2017-11-15T00:24:59.567Z,248.35
2017-11-15T00:27:27.098Z,288.50
2017-11-15T00:29:54.777Z,255.60
2017-11-15T00:32:22.296Z,275.05
2017-11-15T00:34:49.811Z,241.00
2017-11-15T00:37:17.387Z,296.92
2017-11-15T00:39:44.906Z,218.50
2017-11-15T00:42:12.736Z,115.90
2017-11-15T00:44:40.299Z,98.90
2017-11-15T00:47:07.812Z,112.22
2017-11-15T00:49:36.013Z,80.00
2017-11-15T00:52:03.591Z,136.07
2017-11-15T00:54:31.108Z,177.12
2017-11-15T00:56:58.643Z,113.93
2017-11-15T00:59:26.219Z,143.25
2017-11-15T01:01:54.130Z,95.97
2017-11-15T01:04:21.657Z,126.68
2017-11-15T01:06:49.248Z,191.40
2017-11-15T01:09:16.766Z,133.52
2017-11-15T01:11:45.305Z,181.02
2017-11-15T01:14:13.050Z,186.02
2017-11-15T01:16:40.563Z,245.12
2017-11-15T01:19:08.085Z,215.00
2017-11-15T01:21:36.317Z,184.27
2017-11-15T01:24:04.526Z,287.15
2017-11-15T01:26:32.053Z,115.72
2017-11-15T01:29:00.244Z,226.30
2017-11-15T01:31:27.769Z,113.25
2017-11-15T01:33:55.289Z,187.02
2017-11-15T01:38:56.165Z,267.52
2017-11-15T01:41:23.693Z,195.40
2017-11-15T01:43:51.248Z,187.65
2017-11-15T01:46:18.767Z,278.73
2017-11-15T01:48:46.711Z,128.80
2017-11-15T01:51:14.276Z,332.23
2017-11-15T01:53:41.788Z,157.05
2017-11-15T01:56:09.307Z,155.98
2017-11-15T01:58:37.640Z,132.90
2017-11-15T02:01:13.763Z,211.32
2017-11-15T02:03:41.328Z,166.32
2017-11-15T02:06:08.931Z,126.47
2017-11-15T02:08:36.459Z,114.57
2017-11-15T02:11:04.587Z,145.95
2017-11-15T02:13:32.112Z,171.20
2017-11-15T02:15:59.641Z,114.35
2017-11-15T02:18:27.826Z,108.57
2017-11-15T02:20:55.351Z,72.68
2017-11-15T02:23:23.976Z,139.93
2017-11-15T02:25:51.979Z,82.03
2017-11-15T02:28:19.696Z,77.55
2017-11-15T02:30:47.212Z,69.12
2017-11-15T02:33:14.773Z,231.02
2017-11-15T02:35:42.301Z,116.82
2017-11-15T02:38:09.950Z,163.75
2017-11-15T02:40:37.806Z,114.82
2017-11-15T02:43:05.337Z,81.43
2017-11-15T02:45:32.862Z,118.10
2017-11-15T02:48:00.424Z,90.07
2017-11-15T02:50:27.705Z,98.95
2017-11-15T02:52:55.720Z,77.20
2017-11-15T02:55:23.386Z,81.07
2017-11-15T02:57:51.207Z,141.57
2017-11-15T03:00:18.780Z,98.18
2017-11-15T03:02:47.390Z,73.97
2017-11-15T03:05:14.907Z,79.68
2017-11-15T03:07:43.127Z,69.78
2017-11-15T03:10:10.640Z,77.85
2017-11-15T03:12:38.686Z,88.25
2017-11-15T03:15:07.137Z,132.25
2017-11-15T03:17:34.983Z,145.68
2017-11-15T03:20:02.500Z,83.43
2017-11-15T03:22:30.056Z,115.28
2017-11-15T03:24:57.580Z,186.85
2017-11-15T03:27:25.097Z,78.03
2017-11-15T03:29:52.752Z,133.07
2017-11-15T03:32:20.725Z,107.68
2017-11-15T03:34:48.239Z,104.05
2017-11-15T03:37:15.784Z,143.57
2017-11-15T03:39:44.675Z,135.20
2017-11-15T03:42:12.242Z,176.57
2017-11-15T03:44:40.097Z,127.30
2017-11-15T03:47:08.163Z,153.25
2017-11-15T03:49:35.680Z,105.00
2017-11-15T03:52:03.243Z,98.82
2017-11-15T03:54:31.351Z,147.82
2017-11-15T03:56:58.866Z,118.55
2017-11-15T03:59:26.494Z,126.95
2017-11-15T04:01:54.008Z,135.50
2017-11-15T04:04:21.523Z,208.10
2017-11-15T04:06:49.086Z,154.30
2017-11-15T04:09:16.599Z,205.05
2017-11-15T04:11:44.396Z,196.93
2017-11-15T04:14:11.968Z,149.07
2017-11-15T04:16:39.491Z,263.83
2017-11-15T04:19:07.004Z,178.75
2017-11-15T04:21:34.584Z,197.27
2017-11-15T04:24:02.490Z,238.23
2017-11-15T04:26:30.020Z,164.23
2017-11-15T04:28:57.629Z,221.37
2017-11-15T04:31:25.632Z,103.57
2017-11-15T04:33:53.160Z,128.55
2017-11-15T04:36:21.206Z,105.28
2017-11-15T04:38:48.714Z,95.50
2017-11-15T04:41:16.673Z,112.28
2017-11-15T04:43:44.239Z,138.60
2017-11-15T04:46:11.764Z,177.15
2017-11-15T04:48:39.520Z,151.40
2017-11-15T04:51:07.571Z,87.65
2017-11-15T04:53:35.128Z,127.35
2017-11-15T04:56:02.643Z,109.68
2017-11-15T04:58:30.192Z,68.97
2017-11-15T05:00:57.716Z,109.47
2017-11-15T05:03:25.448Z,58.13
2017-11-15T05:05:53.020Z,131.55
2017-11-15T05:08:21.291Z,71.93
2017-11-15T05:10:49.575Z,117.60
2017-11-15T05:13:18.233Z,94.62
2017-11-15T05:15:46.236Z,111.18
2017-11-15T05:18:13.923Z,84.65
2017-11-15T05:20:41.509Z,183.23
2017-11-15T05:23:09.023Z,122.25
2017-11-15T05:25:36.540Z,190.88
2017-11-15T05:28:04.109Z,139.37
2017-11-15T05:30:31.860Z,160.98
2017-11-15T05:32:59.371Z,233.07
2017-11-15T05:35:26.936Z,85.65
2017-11-15T05:37:55.219Z,153.38
2017-11-15T05:40:22.751Z,155.40
2017-11-15T05:42:50.538Z,128.30
2017-11-15T05:45:18.408Z,76.22
2017-11-15T05:47:45.932Z,244.93
2017-11-15T05:50:13.663Z,133.15
2017-11-15T05:52:41.171Z,118.82
2017-11-15T05:55:09.039Z,122.65
2017-11-15T05:57:39.516Z,474.90
2017-11-15T06:00:07.115Z,69.20
2017-11-15T06:02:34.663Z,97.80
2017-11-15T06:05:02.375Z,92.07
2017-11-15T06:07:30.323Z,155.50
2017-11-15T06:09:58.428Z,101.93
2017-11-15T06:12:26.686Z,96.55
2017-11-15T06:14:54.216Z,175.52
2017-11-15T06:17:23.755Z,150.43
2017-11-15T06:19:55.151Z,106.85
2017-11-15T06:22:22.948Z,227.93
2017-11-15T06:24:50.937Z,132.87
2017-11-15T06:27:18.367Z,196.52
2017-11-15T06:29:46.016Z,180.60
2017-11-15T06:32:13.699Z,190.55
2017-11-15T06:34:41.239Z,189.95
2017-11-15T06:37:09.194Z,173.27
2017-11-15T06:39:36.672Z,107.45
2017-11-15T06:42:04.187Z,85.85
2017-11-15T06:44:31.892Z,68.22
2017-11-15T06:46:59.408Z,82.35
2017-11-15T06:49:27.235Z,57.15
2017-11-15T06:51:54.815Z,72.85
2017-11-15T06:54:22.969Z,159.82
2017-11-15T06:56:50.502Z,106.50
2017-11-15T06:59:18.081Z,121.85
2017-11-15T07:01:45.989Z,100.93
2017-11-15T07:04:13.536Z,73.55
2017-11-15T07:06:41.104Z,51.85
2017-11-15T07:09:09.192Z,62.60
2017-11-15T07:11:37.629Z,136.73
2017-11-15T07:14:05.579Z,79.65
2017-11-15T07:16:33.880Z,77.85
2017-11-15T07:19:01.644Z,253.62
2017-11-15T07:21:29.439Z,112.15
2017-11-15T07:23:57.378Z,100.22
2017-11-15T07:26:25.043Z,79.30
2017-11-15T07:28:53.083Z,78.05
2017-11-15T07:31:20.652Z,81.07
2017-11-15T07:33:48.168Z,59.38
2017-11-15T07:36:15.692Z,47.40
2017-11-15T07:38:43.636Z,57.95
2017-11-15T07:41:11.143Z,74.03
2017-11-15T07:43:38.655Z,56.78
2017-11-15T07:46:07.024Z,82.70
2017-11-15T07:48:34.975Z,119.28
2017-11-15T07:51:03.255Z,57.65
2017-11-15T07:53:30.817Z,76.10
2017-11-15T07:55:58.344Z,54.55
2017-11-15T07:58:25.856Z,117.85
2017-11-15T08:00:53.417Z,134.20
2017-11-15T08:03:20.932Z,74.55
2017-11-15T08:05:48.448Z,221.02
2017-11-15T08:08:16.008Z,111.65
2017-11-15T08:10:43.524Z,82.78
2017-11-15T08:13:11.030Z,95.45
2017-11-15T08:15:38.888Z,80.50
2017-11-15T08:18:06.404Z,68.57
2017-11-15T08:20:33.921Z,73.12
2017-11-15T08:23:02.098Z,74.37
2017-11-15T08:25:29.643Z,66.45
2017-11-15T08:27:57.151Z,65.93
2017-11-15T08:30:24.712Z,59.30
2017-11-15T08:32:52.219Z,53.85
2017-11-15T08:35:20.216Z,55.40
2017-11-15T08:37:47.764Z,45.25
2017-11-15T08:40:15.275Z,52.53
2017-11-15T08:42:42.792Z,47.38
2017-11-15T08:45:10.608Z,43.72
2017-11-15T08:47:38.113Z,42.88
2017-11-15T08:50:06.388Z,43.83
2017-11-15T08:52:34.697Z,42.28
2017-11-15T08:55:02.212Z,40.30
2017-11-15T08:57:29.736Z,44.78
2017-11-15T08:59:57.284Z,39.78
2017-11-15T09:02:24.816Z,38.58
2017-11-15T09:04:52.331Z,44.40
2017-11-15T09:07:20.408Z,47.47
2017-11-15T09:09:47.930Z,33.35
2017-11-15T09:12:15.447Z,41.50
2017-11-15T09:14:43.008Z,40.17
2017-11-15T09:17:10.520Z,31.77
2017-11-15T09:19:38.028Z,30.40
2017-11-15T09:22:05.591Z,31.00
2017-11-15T09:24:33.096Z,34.70
2017-11-15T09:27:00.604Z,36.53
2017-11-15T09:29:28.186Z,47.67
2017-11-15T09:31:55.687Z,37.80
2017-11-15T09:34:23.204Z,40.83
2017-11-15T09:36:50.768Z,39.80
2017-11-15T09:39:18.280Z,38.30
2017-11-15T09:41:45.781Z,38.17
2017-11-15T09:44:13.343Z,28.90
2017-11-15T09:46:40.855Z,32.63
2017-11-15T09:49:08.371Z,32.53
2017-11-15T09:51:35.936Z,33.43
2017-11-15T09:54:04.212Z,36.00
2017-11-15T09:56:32.488Z,30.70
2017-11-15T09:59:00.068Z,32.23
2017-11-15T10:01:27.587Z,35.30
2017-11-15T10:03:55.096Z,35.22
2017-11-15T10:06:22.642Z,30.37
2017-11-15T10:08:50.148Z,31.27
2017-11-15T10:11:17.664Z,37.30
2017-11-15T10:13:44.984Z,32.80
2017-11-15T10:16:12.502Z,32.88
2017-11-15T10:18:40.024Z,33.23
2017-11-15T10:21:07.580Z,34.97
2017-11-15T10:23:35.084Z,30.87
2017-11-15T10:26:02.603Z,33.10
2017-11-15T10:28:30.164Z,27.80
2017-11-15T10:30:57.670Z,34.30
2017-11-15T10:33:25.180Z,38.97
2017-11-15T10:35:53.489Z,34.87
2017-11-15T10:38:20.991Z,29.90
2017-11-15T10:40:48.497Z,31.40
2017-11-15T10:43:16.060Z,40.20
2017-11-15T10:45:43.564Z,35.67
2017-11-15T10:48:11.093Z,35.92
2017-11-15T10:50:38.676Z,36.07
2017-11-15T10:53:06.184Z,36.83
2017-11-15T10:55:33.755Z,33.70
2017-11-15T10:58:01.311Z,35.85
2017-11-15T11:00:34.523Z,31.07
2017-11-15T11:03:02.084Z,33.25
2017-11-15T11:05:29.604Z,40.33
2017-11-15T11:07:57.120Z,36.40
2017-11-15T11:10:24.780Z,37.58
2017-11-15T11:12:52.292Z,35.20
2017-11-15T11:15:19.809Z,29.60
2017-11-15T11:17:47.517Z,29.37
2017-11-15T11:20:15.028Z,39.43
2017-11-15T11:22:42.529Z,41.63
2017-11-15T11:25:10.097Z,34.70
2017-11-15T11:27:37.751Z,28.60
2017-11-15T11:30:05.263Z,33.37
2017-11-15T11:32:32.820Z,27.53
2017-11-15T11:35:00.323Z,34.17
2017-11-15T11:37:27.827Z,30.33
2017-11-15T11:39:55.415Z,36.90
2017-11-15T11:42:22.924Z,28.60
2017-11-15T11:44:50.427Z,32.53
2017-11-15T11:47:18.236Z,29.10
2017-11-15T11:49:45.752Z,30.10
2017-11-15T11:52:13.263Z,29.83
2017-11-15T11:54:40.849Z,26.40
2017-11-15T11:57:08.372Z,29.23
2017-11-15T11:59:35.876Z,29.40
2017-11-15T12:02:03.445Z,26.93
2017-11-15T12:04:31.251Z,29.73
2017-11-15T12:06:58.773Z,33.33
2017-11-15T12:09:26.336Z,29.67
2017-11-15T12:11:53.841Z,29.43
2017-11-15T12:14:21.351Z,29.73
2017-11-15T12:16:49.381Z,35.23
2017-11-15T12:19:16.896Z,29.63
2017-11-15T12:21:44.400Z,29.13
2017-11-15T12:24:11.933Z,30.40
2017-11-15T12:26:39.440Z,28.67
2017-11-15T12:29:06.952Z,26.50
2017-11-15T12:31:34.547Z,27.97
2017-11-15T12:34:02.059Z,29.37
2017-11-15T12:36:29.559Z,23.90
2017-11-15T12:38:57.112Z,26.03
2017-11-15T12:41:24.612Z,31.43
2017-11-15T12:43:52.120Z,33.43
2017-11-15T12:46:19.664Z,24.87
2017-11-15T12:48:47.184Z,21.77
2017-11-15T12:51:14.693Z,26.83
2017-11-15T12:53:42.457Z,23.13
2017-11-15T12:56:09.964Z,20.37
2017-11-15T12:58:37.976Z,21.10
2017-11-15T13:01:05.544Z,16.10
2017-11-15T13:03:33.055Z,21.13
2017-11-15T13:06:00.575Z,18.60
2017-11-15T13:08:28.136Z,17.70
2017-11-15T13:10:56.072Z,16.97
2017-11-15T13:13:24.174Z,17.73
2017-11-15T13:15:51.743Z,18.03
2017-11-15T13:18:19.252Z,18.80
2017-11-15T13:20:46.754Z,22.00
2017-11-15T13:23:14.399Z,15.17
2017-11-15T13:25:41.910Z,15.83
2017-11-15T13:28:09.408Z,16.03
2017-11-15T13:30:36.968Z,16.73
2017-11-15T13:33:04.631Z,20.60
2017-11-15T13:35:32.132Z,13.00
2017-11-15T13:37:59.704Z,17.40
2017-11-15T13:40:27.209Z,16.93
2017-11-15T13:42:54.722Z,12.83
2017-11-15T13:45:22.283Z,11.57
2017-11-15T13:47:49.795Z,12.73
2017-11-15T13:50:17.647Z,11.80
2017-11-15T13:52:45.284Z,9.30
2017-11-15T13:55:12.792Z,13.60
2017-11-15T13:57:40.291Z,10.90
2017-11-15T14:00:08.188Z,14.50
2017-11-15T14:02:35.683Z,13.20
2017-11-15T14:05:03.188Z,12.93
2017-11-15T14:07:31.079Z,13.90
2017-11-15T14:09:58.736Z,14.73
2017-11-15T14:12:26.425Z,13.53
2017-11-15T14:14:54.000Z,13.80
2017-11-15T14:17:21.526Z,14.97
2017-11-15T14:19:49.591Z,14.33
2017-11-15T14:22:17.364Z,15.07
2017-11-15T14:24:44.716Z,15.47
2017-11-15T14:27:12.796Z,13.73
2017-11-15T14:29:40.296Z,17.10
2017-11-15T14:32:07.846Z,15.53
2017-11-15T14:34:35.387Z,16.00
2017-11-15T14:37:02.896Z,20.40
2017-11-15T14:39:31.252Z,31.53
2017-11-15T14:41:58.764Z,23.53
2017-11-15T14:44:26.275Z,19.93
2017-11-15T14:46:53.823Z,15.77
2017-11-15T14:49:21.319Z,19.40
2017-11-15T14:51:48.820Z,22.27
2017-11-15T14:54:17.164Z,18.50
2017-11-15T14:56:44.844Z,19.17
2017-11-15T14:59:12.360Z,21.37
2017-11-15T15:01:40.055Z,17.93
2017-11-15T15:04:07.560Z,18.00
2017-11-15T15:06:35.914Z,23.10
2017-11-15T15:09:03.579Z,37.23
2017-11-15T15:11:31.289Z,26.60
2017-11-15T15:13:58.936Z,20.93
2017-11-15T15:16:26.576Z,29.80
2017-11-15T15:18:54.796Z,27.87
2017-11-15T15:21:23.136Z,17.30
2017-11-15T15:23:51.136Z,31.33
2017-11-15T15:26:18.719Z,18.63
2017-11-15T15:28:46.233Z,19.30
2017-11-15T15:31:15.290Z,20.73
2017-11-15T15:33:43.204Z,17.67
2017-11-15T15:36:11.567Z,20.90
2017-11-15T15:38:39.780Z,19.40
2017-11-15T15:41:08.072Z,18.50
2017-11-15T15:43:35.646Z,22.75
2017-11-15T15:46:03.061Z,23.60
2017-11-15T15:48:30.577Z,20.10
2017-11-15T15:50:58.928Z,15.47
2017-11-15T15:53:26.472Z,21.80
2017-11-15T15:55:54.416Z,20.50
2017-11-15T15:58:22.701Z,25.47
2017-11-15T16:00:51.865Z,24.40
2017-11-15T16:03:20.295Z,20.70
2017-11-15T16:05:47.802Z,25.47
2017-11-15T16:08:15.737Z,28.00
2017-11-15T16:10:43.279Z,27.30
2017-11-15T16:13:10.799Z,31.98
2017-11-15T16:15:38.350Z,20.75
2017-11-15T16:18:05.876Z,25.47
2017-11-15T16:20:33.388Z,29.87
2017-11-15T16:23:00.968Z,24.67
2017-11-15T16:25:29.235Z,25.83
2017-11-15T16:27:56.985Z,26.70
2017-11-15T16:30:24.917Z,29.75
2017-11-15T16:32:52.434Z,22.83
2017-11-15T16:35:19.940Z,24.27
2017-11-15T16:37:47.505Z,24.35
2017-11-15T16:40:15.024Z,21.45
2017-11-15T16:42:42.540Z,26.52
2017-11-15T16:45:10.200Z,28.53
2017-11-15T16:47:37.749Z,25.55
2017-11-15T16:50:06.055Z,24.15
2017-11-15T16:52:33.586Z,23.95
2017-11-15T16:55:01.173Z,19.50
2017-11-15T16:57:28.920Z,26.17
2017-11-15T16:59:56.863Z,21.30
2017-11-15T17:02:24.432Z,29.65
2017-11-15T17:04:51.945Z,26.67
2017-11-15T17:07:19.783Z,26.80
2017-11-15T17:09:47.363Z,22.37
2017-11-15T17:12:14.966Z,24.35
2017-11-15T17:14:42.475Z,25.05
2017-11-15T17:17:10.523Z,20.65
2017-11-15T17:19:37.914Z,26.58
2017-11-15T17:22:06.415Z,25.17
2017-11-15T17:24:34.398Z,27.77
2017-11-15T17:27:02.645Z,27.62
2017-11-15T17:29:30.637Z,22.42
2017-11-15T17:31:58.699Z,26.33
2017-11-15T17:34:26.460Z,34.33
2017-11-15T17:36:53.975Z,26.40
2017-11-15T17:39:21.913Z,33.22
2017-11-15T17:41:50.167Z,29.55
2017-11-15T17:44:17.676Z,26.08
2017-11-15T17:46:45.187Z,29.98
2017-11-15T17:49:12.985Z,32.92
2017-11-15T17:51:40.496Z,33.83
2017-11-15T17:54:08.312Z,28.10
2017-11-15T17:56:35.871Z,29.50
2017-11-15T17:59:03.979Z,42.80
2017-11-15T18:04:06.664Z,32.55
2017-11-15T18:06:36.227Z,26.65
2017-11-15T18:09:04.517Z,29.12
2017-11-15T18:11:32.123Z,24.87
2017-11-15T18:13:59.808Z,29.63
2017-11-15T18:16:28.339Z,32.78
2017-11-15T18:18:56.453Z,25.85
2017-11-15T18:21:23.976Z,26.67
2017-11-15T18:23:52.306Z,29.60
2017-11-15T18:26:19.815Z,38.63
2017-11-15T18:28:47.324Z,28.60
2017-11-15T18:31:14.864Z,27.75
2017-11-15T18:33:42.383Z,31.37
2017-11-15T18:36:10.621Z,30.35
2017-11-15T18:38:38.592Z,28.25
2017-11-15T18:41:06.369Z,35.60
2017-11-15T18:43:34.172Z,36.42
2017-11-15T18:46:01.747Z,47.90
2017-11-15T18:48:30.020Z,40.60
2017-11-15T18:50:58.296Z,44.65
2017-11-15T18:53:26.648Z,40.92
2017-11-15T18:55:54.727Z,52.38
2017-11-15T18:58:22.236Z,47.17
2017-11-15T19:00:49.795Z,45.78
2017-11-15T19:03:17.304Z,49.58
2017-11-15T19:05:45.127Z,51.92
2017-11-15T19:08:12.689Z,47.50
2017-11-15T19:10:40.296Z,55.05
2017-11-15T19:13:07.809Z,46.83
2017-11-15T19:15:35.370Z,38.85
2017-11-15T19:18:02.876Z,48.70
2017-11-15T19:20:30.385Z,53.40
2017-11-15T19:22:57.943Z,49.10
2017-11-15T19:25:25.856Z,40.08
2017-11-15T19:27:53.368Z,42.47
2017-11-15T19:30:20.911Z,35.83
2017-11-15T19:32:48.427Z,32.13
2017-11-15T19:35:15.996Z,39.25
2017-11-15T19:37:43.500Z,40.08
2017-11-15T19:40:11.412Z,46.60
2017-11-15T19:42:38.964Z,40.08
2017-11-15T19:45:06.467Z,48.85
2017-11-15T19:47:33.972Z,51.30
2017-11-15T19:50:01.519Z,54.05
2017-11-15T19:52:29.029Z,38.47
2017-11-15T19:54:56.972Z,45.75
2017-11-15T19:57:24.540Z,43.65
2017-11-15T19:59:52.048Z,40.63
2017-11-15T20:02:19.553Z,36.95
2017-11-15T20:04:47.111Z,40.12
2017-11-15T20:07:14.625Z,38.42
2017-11-15T20:09:42.142Z,40.67
2017-11-15T20:12:09.700Z,34.30
2017-11-15T20:14:37.488Z,33.67
2017-11-15T20:17:05.258Z,38.42
2017-11-15T20:19:32.823Z,31.87
2017-11-15T20:22:00.344Z,30.73
2017-11-15T20:24:27.847Z,33.17
2017-11-15T20:26:55.424Z,34.20
2017-11-15T20:29:23.152Z,35.53
2017-11-15T20:31:51.427Z,38.35
2017-11-15T20:34:19.760Z,38.80
2017-11-15T20:36:47.279Z,41.10
2017-11-15T20:39:15.748Z,35.22
2017-11-15T20:41:43.710Z,35.30
2017-11-15T20:44:12.084Z,44.10
2017-11-15T20:46:40.339Z,31.67
2017-11-15T20:49:09.716Z,38.67
2017-11-15T20:51:37.237Z,35.03
2017-11-15T20:54:04.799Z,36.33
2017-11-15T20:56:32.316Z,41.80
2017-11-15T20:59:00.004Z,40.38
2017-11-15T21:01:28.700Z,39.47
2017-11-15T21:03:56.211Z,44.30
2017-11-15T21:06:23.724Z,39.08
2017-11-15T21:08:52.623Z,42.92
2017-11-15T21:11:20.827Z,52.70
2017-11-15T21:13:49.127Z,35.22
2017-11-15T21:16:19.034Z,45.40
2017-11-15T21:18:46.626Z,40.25
2017-11-15T21:21:15.859Z,45.63
2017-11-15T21:23:43.506Z,40.42
2017-11-15T21:26:11.117Z,55.17
2017-11-15T21:28:38.828Z,51.83
2017-11-15T21:31:07.122Z,50.15
2017-11-15T21:33:35.595Z,57.90
2017-11-15T21:36:03.055Z,65.87
2017-11-15T21:38:31.062Z,65.32
2017-11-15T21:41:00.100Z,46.33
2017-11-15T21:43:28.492Z,57.30
2017-11-15T21:45:56.055Z,43.40
2017-11-15T21:48:23.632Z,60.63
2017-11-15T21:50:51.143Z,68.00
2017-11-15T21:53:18.524Z,49.92
2017-11-15T21:55:46.043Z,65.12
2017-11-15T21:58:13.567Z,69.35
2017-11-15T22:00:41.154Z,63.72
2017-11-15T22:03:08.662Z,61.45
2017-11-15T22:05:36.176Z,66.70
2017-11-15T22:08:03.725Z,64.45
2017-11-15T22:10:31.232Z,76.00
2017-11-15T22:12:58.751Z,76.47
2017-11-15T22:15:28.127Z,75.35
2017-11-15T22:17:55.651Z,86.15
2017-11-15T22:20:23.169Z,68.28
2017-11-15T22:22:50.854Z,60.20
2017-11-15T22:25:18.771Z,77.97
2017-11-15T22:27:46.292Z,60.67
2017-11-15T22:30:13.868Z,63.75
2017-11-15T22:32:41.392Z,63.92
2017-11-15T22:35:08.903Z,72.15
2017-11-15T22:37:36.861Z,80.05
2017-11-15T22:40:04.373Z,73.65
2017-11-15T22:42:31.888Z,57.80
2017-11-15T22:45:00.456Z,74.05
2017-11-15T22:47:27.968Z,79.60
2017-11-15T22:49:56.191Z,77.68
2017-11-15T22:52:23.751Z,79.25
2017-11-15T22:54:51.264Z,81.72
2017-11-15T22:57:18.768Z,73.22
2017-11-15T22:59:46.336Z,92.95
2017-11-15T23:02:13.852Z,64.32
2017-11-15T23:04:41.775Z,86.78
2017-11-15T23:07:09.345Z,72.50
2017-11-15T23:09:36.852Z,86.85
2017-11-15T23:12:04.367Z,106.32
2017-11-15T23:14:32.047Z,114.05
2017-11-15T23:16:59.556Z,83.10
2017-11-15T23:19:27.072Z,103.65
2017-11-15T23:21:54.651Z,101.50
2017-11-15T23:24:22.164Z,122.30
2017-11-15T23:26:49.711Z,116.72
2017-11-15T23:29:17.367Z,106.50
2017-11-15T23:31:45.075Z,99.50
2017-11-15T23:34:12.620Z,89.20
2017-11-15T23:36:40.404Z,113.57
2017-11-15T23:39:07.920Z,87.75
2017-11-15T23:41:35.443Z,105.30
2017-11-15T23:44:03.524Z,94.32
2017-11-15T23:46:31.040Z,100.80
2017-11-15T23:48:58.559Z,114.62
2017-11-15T23:51:26.129Z,99.70
2017-11-15T23:53:54.176Z,156.43
2017-11-15T23:56:21.451Z,145.93
2017-11-15T23:58:49.003Z,127.03
